Página principal
METAR-TAF:

METAR-TAF

Aeroportos :

Orsk, Rússia

latitude: 51-04-18N, longitude: 058-35-48E, altura: 277 m

Observação actual do tempo

O boletim foi feito há 46 minutos, às 00:00 UTC
Vento 8 kt de norte
Temperatura 2°C
Humidade 80%
Pressão 1016 hPa
Visibilidade 10 km ou mais
sem nuvens abaixo de 1500 metros e sem cumulonimbus

METAR: UWOR 180000Z 35004MPS CAVOK 02/M01 Q1016 R25/CLRD65 NOSIG RMK QFE738/0984

Hora: 05:46 (00:46 UTC)

Previsão

O boletim foi feito há 1 hora e 51 minutos, às 22:55 UTC
Previsão válida de 18 às 00 UTC a 18 às 09 UTC
Vento 12 kt de norte com rajadas de 21 kt
Visibilidade 10 km ou mais
Nuvens fragmentadasa uma altura de 1100 ft
Temporariamente
de 18 às 00 UTC a 18 às 09 UTC
Vento 19 kt de nor-noroeste com rajadas de 29 kt
Visibilidade: 3100 m
Nuvens fragmentadasa uma altura de 700 ft
neblina

TAF: UWOR 172255Z 1800/1809 36006G11MPS 9999 BKN011 TEMPO 1800/1809 33010G15MPS 3100 BR BKN007

Observações e previsões do tempo de mais de 4000 aeroportos (mensagens METAR e TAF).

As estações disponíveis são os pontos amarelos e vermelhos sobre o mapa.

Mova o rato sobre o mapa para ver o nome da estação.

Depois clique no ponto para visualizar as observações e previsões meteorológicas.

Para alterar o mapa : clique nos botões verdes com uma cruz preta para aumentar o zoom; no botão verde com uma pitada de zoom; ou nas setas verdes para mapas adjacentes.


METAR-TAF: